sensor_id;sensor_type;location;lat;lon;timestamp;temperature;humidity
75091;DHT22;63674;48.048;8.306;2022-12-10T00:04:17;-0.30;99.90
75091;DHT22;63674;48.048;8.306;2022-12-10T00:06:47;0.00;99.90
75091;DHT22;63674;48.048;8.306;2022-12-10T00:09:17;0.10;99.90
75091;DHT22;63674;48.048;8.306;2022-12-10T00:11:49;-0.30;99.90
75091;DHT22;63674;48.048;8.306;2022-12-10T00:16:46;0.10;99.90
75091;DHT22;63674;48.048;8.306;2022-12-10T00:19:16;-0.50;99.90
75091;DHT22;63674;48.048;8.306;2022-12-10T00:21:45;-0.50;99.90
75091;DHT22;63674;48.048;8.306;2022-12-10T00:29:14;-0.20;99.90
75091;DHT22;63674;48.048;8.306;2022-12-10T00:36:42;-0.30;99.90
75091;DHT22;63674;48.048;8.306;2022-12-10T00:39:14;-0.40;99.90
75091;DHT22;63674;48.048;8.306;2022-12-10T00:44:15;-0.30;99.90
75091;DHT22;63674;48.048;8.306;2022-12-10T00:46:44;-0.20;99.90
75091;DHT22;63674;48.048;8.306;2022-12-10T00:51:42;-0.90;99.90
75091;DHT22;63674;48.048;8.306;2022-12-10T00:54:10;-0.10;99.90
75091;DHT22;63674;48.048;8.306;2022-12-10T01:01:41;-0.20;99.90
75091;DHT22;63674;48.048;8.306;2022-12-10T01:04:12;-0.20;99.90
75091;DHT22;63674;48.048;8.306;2022-12-10T01:06:45;-0.60;99.90
75091;DHT22;63674;48.048;8.306;2022-12-10T01:09:16;-0.30;99.90
75091;DHT22;63674;48.048;8.306;2022-12-10T01:11:48;0.00;99.90
75091;DHT22;63674;48.048;8.306;2022-12-10T01:14:20;-0.50;99.90
75091;DHT22;63674;48.048;8.306;2022-12-10T01:16:54;-0.70;99.90
75091;DHT22;63674;48.048;8.306;2022-12-10T01:24:25;-0.20;99.90
75091;DHT22;63674;48.048;8.306;2022-12-10T01:26:55;-0.10;99.90
75091;DHT22;63674;48.048;8.306;2022-12-10T01:29:24;0.20;99.90
75091;DHT22;63674;48.048;8.306;2022-12-10T01:31:56;-0.30;99.90
75091;DHT22;63674;48.048;8.306;2022-12-10T01:34:25;-0.50;99.90
75091;DHT22;63674;48.048;8.306;2022-12-10T01:36:54;-0.40;99.90
75091;DHT22;63674;48.048;8.306;2022-12-10T01:39:23;0.80;99.90
75091;DHT22;63674;48.048;8.306;2022-12-10T01:41:54;-0.20;99.90
75091;DHT22;63674;48.048;8.306;2022-12-10T01:47:42;-0.20;99.90
75091;DHT22;63674;48.048;8.306;2022-12-10T01:50:11;-0.30;99.90
75091;DHT22;63674;48.048;8.306;2022-12-10T01:55:37;-0.10;99.90
75091;DHT22;63674;48.048;8.306;2022-12-10T02:00:44;1.00;99.90
75091;DHT22;63674;48.048;8.306;2022-12-10T02:03:26;-0.10;99.90
75091;DHT22;63674;48.048;8.306;2022-12-10T02:06:06;-0.20;99.90
75091;DHT22;63674;48.048;8.306;2022-12-10T02:08:49;0.30;99.90
75091;DHT22;63674;48.048;8.306;2022-12-10T02:11:27;-0.20;99.90
75091;DHT22;63674;48.048;8.306;2022-12-10T02:14:02;-0.20;99.90
75091;DHT22;63674;48.048;8.306;2022-12-10T02:16:36;-0.20;99.90
75091;DHT22;63674;48.048;8.306;2022-12-10T02:19:15;2.20;99.90
75091;DHT22;63674;48.048;8.306;2022-12-10T02:24:22;-0.10;99.90
75091;DHT22;63674;48.048;8.306;2022-12-10T02:26:56;-0.10;99.90
75091;DHT22;63674;48.048;8.306;2022-12-10T02:29:30;0.00;99.90
75091;DHT22;63674;48.048;8.306;2022-12-10T02:32:02;0.00;99.90
75091;DHT22;63674;48.048;8.306;2022-12-10T02:34:37;-0.10;99.90
75091;DHT22;63674;48.048;8.306;2022-12-10T02:37:12;0.00;99.90
75091;DHT22;63674;48.048;8.306;2022-12-10T02:39:46;-0.20;99.90
75091;DHT22;63674;48.048;8.306;2022-12-10T02:42:19;-0.20;99.90
75091;DHT22;63674;48.048;8.306;2022-12-10T02:44:52;-0.20;99.90
75091;DHT22;63674;48.048;8.306;2022-12-10T02:49:53;-0.20;99.90
75091;DHT22;63674;48.048;8.306;2022-12-10T02:52:24;0.10;99.90
75091;DHT22;63674;48.048;8.306;2022-12-10T02:57:29;0.40;99.90
75091;DHT22;63674;48.048;8.306;2022-12-10T03:00:09;-0.10;99.90
75091;DHT22;63674;48.048;8.306;2022-12-10T03:03:04;-0.10;99.90
75091;DHT22;63674;48.048;8.306;2022-12-10T03:05:51;-0.10;99.90
75091;DHT22;63674;48.048;8.306;2022-12-10T03:08:24;-0.10;99.90
75091;DHT22;63674;48.048;8.306;2022-12-10T03:10:58;-0.10;99.90
75091;DHT22;63674;48.048;8.306;2022-12-10T03:13:32;-0.10;99.90
75091;DHT22;63674;48.048;8.306;2022-12-10T03:16:06;-0.10;99.90
75091;DHT22;63674;48.048;8.306;2022-12-10T03:18:36;-0.80;99.90
75091;DHT22;63674;48.048;8.306;2022-12-10T03:21:06;-0.10;99.90
75091;DHT22;63674;48.048;8.306;2022-12-10T03:23:39;-0.10;99.90
75091;DHT22;63674;48.048;8.306;2022-12-10T03:26:09;-0.10;99.90
75091;DHT22;63674;48.048;8.306;2022-12-10T03:28:41;-0.40;99.90
75091;DHT22;63674;48.048;8.306;2022-12-10T03:31:16;-0.20;99.90
75091;DHT22;63674;48.048;8.306;2022-12-10T03:33:46;-0.20;99.90
75091;DHT22;63674;48.048;8.306;2022-12-10T03:36:17;-0.20;99.90
75091;DHT22;63674;48.048;8.306;2022-12-10T03:41:36;-0.10;99.90
75091;DHT22;63674;48.048;8.306;2022-12-10T03:46:35;-0.30;99.90
75091;DHT22;63674;48.048;8.306;2022-12-10T03:49:04;-1.00;99.90
75091;DHT22;63674;48.048;8.306;2022-12-10T03:51:33;0.30;99.90
75091;DHT22;63674;48.048;8.306;2022-12-10T04:03:59;-0.30;99.90
75091;DHT22;63674;48.048;8.306;2022-12-10T04:06:27;-0.40;99.90
75091;DHT22;63674;48.048;8.306;2022-12-10T04:19:14;-0.50;99.90
75091;DHT22;63674;48.048;8.306;2022-12-10T04:21:45;-0.10;99.90
75091;DHT22;63674;48.048;8.306;2022-12-10T04:24:33;-0.40;99.90
75091;DHT22;63674;48.048;8.306;2022-12-10T04:27:22;2.40;99.90
75091;DHT22;63674;48.048;8.306;2022-12-10T04:29:53;-0.40;99.90
75091;DHT22;63674;48.048;8.306;2022-12-10T04:32:24;-0.70;99.90
75091;DHT22;63674;48.048;8.306;2022-12-10T04:34:55;-0.40;99.90
75091;DHT22;63674;48.048;8.306;2022-12-10T04:39:53;-0.70;99.90
75091;DHT22;63674;48.048;8.306;2022-12-10T04:42:22;-0.50;99.90
75091;DHT22;63674;48.048;8.306;2022-12-10T04:47:21;0.60;99.90
75091;DHT22;63674;48.048;8.306;2022-12-10T04:52:20;-0.30;99.90
75091;DHT22;63674;48.048;8.306;2022-12-10T04:59:47;-1.70;99.90
75091;DHT22;63674;48.048;8.306;2022-12-10T05:04:44;-0.20;99.90
75091;DHT22;63674;48.048;8.306;2022-12-10T05:09:43;-0.40;99.90
75091;DHT22;63674;48.048;8.306;2022-12-10T05:12:12;-0.60;99.90
75091;DHT22;63674;48.048;8.306;2022-12-10T05:19:38;-0.50;99.90
75091;DHT22;63674;48.048;8.306;2022-12-10T05:22:08;-0.70;99.90
75091;DHT22;63674;48.048;8.306;2022-12-10T05:24:55;-0.50;99.90
75091;DHT22;63674;48.048;8.306;2022-12-10T05:27:24;0.50;99.90
75091;DHT22;63674;48.048;8.306;2022-12-10T05:29:53;0.80;99.90
75091;DHT22;63674;48.048;8.306;2022-12-10T05:34:50;-0.40;99.90
75091;DHT22;63674;48.048;8.306;2022-12-10T05:42:18;-0.60;99.90
75091;DHT22;63674;48.048;8.306;2022-12-10T05:52:18;-0.80;99.90
75091;DHT22;63674;48.048;8.306;2022-12-10T05:54:47;-1.70;99.90
75091;DHT22;63674;48.048;8.306;2022-12-10T05:59:45;-1.60;99.90
75091;DHT22;63674;48.048;8.306;2022-12-10T06:07:13;-0.80;99.90
75091;DHT22;63674;48.048;8.306;2022-12-10T06:12:10;-0.90;99.90
75091;DHT22;63674;48.048;8.306;2022-12-10T06:14:39;-0.70;99.90
75091;DHT22;63674;48.048;8.306;2022-12-10T06:17:09;0.20;99.90
75091;DHT22;63674;48.048;8.306;2022-12-10T06:22:06;-0.90;99.90
75091;DHT22;63674;48.048;8.306;2022-12-10T06:24:35;-0.70;99.90
75091;DHT22;63674;48.048;8.306;2022-12-10T06:27:03;-0.70;99.90
75091;DHT22;63674;48.048;8.306;2022-12-10T06:29:32;-1.30;99.90
75091;DHT22;63674;48.048;8.306;2022-12-10T06:32:01;-1.50;99.90
75091;DHT22;63674;48.048;8.306;2022-12-10T06:34:31;-0.30;99.90
75091;DHT22;63674;48.048;8.306;2022-12-10T06:37:03;-0.80;99.90
75091;DHT22;63674;48.048;8.306;2022-12-10T06:44:29;-0.60;99.90
75091;DHT22;63674;48.048;8.306;2022-12-10T06:46:58;-0.70;99.90
75091;DHT22;63674;48.048;8.306;2022-12-10T06:51:57;-0.60;99.90
75091;DHT22;63674;48.048;8.306;2022-12-10T07:01:52;-0.40;99.90
75091;DHT22;63674;48.048;8.306;2022-12-10T07:04:21;-0.60;99.90
75091;DHT22;63674;48.048;8.306;2022-12-10T07:06:50;-0.50;99.90
75091;DHT22;63674;48.048;8.306;2022-12-10T07:09:20;-0.70;99.90
75091;DHT22;63674;48.048;8.306;2022-12-10T07:11:49;-0.70;99.90
75091;DHT22;63674;48.048;8.306;2022-12-10T07:14:18;-0.60;99.90
75091;DHT22;63674;48.048;8.306;2022-12-10T07:16:46;-0.20;99.90
75091;DHT22;63674;48.048;8.306;2022-12-10T07:21:44;0.00;99.90
75091;DHT22;63674;48.048;8.306;2022-12-10T07:24:15;-0.60;99.90
75091;DHT22;63674;48.048;8.306;2022-12-10T07:26:47;-0.40;99.90
75091;DHT22;63674;48.048;8.306;2022-12-10T07:29:17;-0.50;99.90
75091;DHT22;63674;48.048;8.306;2022-12-10T07:31:48;-0.70;99.90
75091;DHT22;63674;48.048;8.306;2022-12-10T07:34:18;-0.70;99.90
75091;DHT22;63674;48.048;8.306;2022-12-10T07:39:15;-0.40;99.90
75091;DHT22;63674;48.048;8.306;2022-12-10T07:41:48;-0.60;99.90
75091;DHT22;63674;48.048;8.306;2022-12-10T07:46:48;-0.60;99.90
75091;DHT22;63674;48.048;8.306;2022-12-10T07:49:17;0.80;99.90
75091;DHT22;63674;48.048;8.306;2022-12-10T07:51:47;-0.60;99.90
75091;DHT22;63674;48.048;8.306;2022-12-10T07:54:18;-0.60;99.90
75091;DHT22;63674;48.048;8.306;2022-12-10T07:56:49;-0.50;99.90
75091;DHT22;63674;48.048;8.306;2022-12-10T08:04:16;-0.50;99.90
75091;DHT22;63674;48.048;8.306;2022-12-10T08:14:13;-0.50;99.90
75091;DHT22;63674;48.048;8.306;2022-12-10T08:21:47;-0.40;99.90
75091;DHT22;63674;48.048;8.306;2022-12-10T08:24:16;-0.60;99.90
75091;DHT22;63674;48.048;8.306;2022-12-10T08:26:44;-0.60;99.90
75091;DHT22;63674;48.048;8.306;2022-12-10T08:29:14;-0.40;99.90
75091;DHT22;63674;48.048;8.306;2022-12-10T08:34:14;0.70;99.90
75091;DHT22;63674;48.048;8.306;2022-12-10T08:36:44;-0.40;99.90
75091;DHT22;63674;48.048;8.306;2022-12-10T08:44:14;0.00;99.90
75091;DHT22;63674;48.048;8.306;2022-12-10T08:46:43;-0.30;99.90
75091;DHT22;63674;48.048;8.306;2022-12-10T09:01:37;-0.20;99.90
75091;DHT22;63674;48.048;8.306;2022-12-10T09:11:33;-0.10;99.90
75091;DHT22;63674;48.048;8.306;2022-12-10T09:14:03;-0.10;99.90
75091;DHT22;63674;48.048;8.306;2022-12-10T09:16:33;0.00;99.90
75091;DHT22;63674;48.048;8.306;2022-12-10T09:19:05;1.20;99.90
75091;DHT22;63674;48.048;8.306;2022-12-10T09:21:35;-0.10;99.90
75091;DHT22;63674;48.048;8.306;2022-12-10T09:24:05;-0.10;99.90
75091;DHT22;63674;48.048;8.306;2022-12-10T09:26:34;0.00;99.90
75091;DHT22;63674;48.048;8.306;2022-12-10T09:29:05;0.00;99.90
75091;DHT22;63674;48.048;8.306;2022-12-10T09:31:33;0.00;99.90
75091;DHT22;63674;48.048;8.306;2022-12-10T09:39:02;-0.10;99.90
75091;DHT22;63674;48.048;8.306;2022-12-10T09:41:42;0.90;99.90
75091;DHT22;63674;48.048;8.306;2022-12-10T09:44:31;-0.10;99.90
75091;DHT22;63674;48.048;8.306;2022-12-10T09:47:10;-0.10;99.90
75091;DHT22;63674;48.048;8.306;2022-12-10T09:49:54;-0.10;99.90
75091;DHT22;63674;48.048;8.306;2022-12-10T09:52:27;-0.10;99.90
75091;DHT22;63674;48.048;8.306;2022-12-10T09:55:01;-0.30;99.90
75091;DHT22;63674;48.048;8.306;2022-12-10T09:57:36;-0.10;99.90
75091;DHT22;63674;48.048;8.306;2022-12-10T10:00:21;-0.20;99.90
75091;DHT22;63674;48.048;8.306;2022-12-10T10:05:25;-1.60;99.90
75091;DHT22;63674;48.048;8.306;2022-12-10T10:07:58;1.20;99.90
75091;DHT22;63674;48.048;8.306;2022-12-10T10:10:30;-0.20;99.90
75091;DHT22;63674;48.048;8.306;2022-12-10T10:13:09;1.00;99.90
75091;DHT22;63674;48.048;8.306;2022-12-10T10:15:43;-0.30;99.90
75091;DHT22;63674;48.048;8.306;2022-12-10T10:18:17;-0.30;99.90
75091;DHT22;63674;48.048;8.306;2022-12-10T10:20:51;0.90;99.90
75091;DHT22;63674;48.048;8.306;2022-12-10T10:25:49;-0.10;99.90
75091;DHT22;63674;48.048;8.306;2022-12-10T10:28:19;-0.30;99.90
75091;DHT22;63674;48.048;8.306;2022-12-10T10:30:51;-0.30;99.90
75091;DHT22;63674;48.048;8.306;2022-12-10T10:35:54;-0.30;99.90
75091;DHT22;63674;48.048;8.306;2022-12-10T10:38:28;-0.90;99.90
75091;DHT22;63674;48.048;8.306;2022-12-10T10:40:59;-0.40;99.90
75091;DHT22;63674;48.048;8.306;2022-12-10T10:43:32;-0.40;99.90
75091;DHT22;63674;48.048;8.306;2022-12-10T10:46:04;-0.40;99.90
75091;DHT22;63674;48.048;8.306;2022-12-10T10:51:16;-0.40;99.90
75091;DHT22;63674;48.048;8.306;2022-12-10T10:53:48;-0.50;99.90
75091;DHT22;63674;48.048;8.306;2022-12-10T10:56:21;-1.70;99.90
75091;DHT22;63674;48.048;8.306;2022-12-10T10:58:54;-0.50;99.90
75091;DHT22;63674;48.048;8.306;2022-12-10T11:01:25;-0.40;99.90
75091;DHT22;63674;48.048;8.306;2022-12-10T11:03:58;-0.50;99.90
75091;DHT22;63674;48.048;8.306;2022-12-10T11:06:28;-0.50;99.90
75091;DHT22;63674;48.048;8.306;2022-12-10T11:08:58;-0.60;99.90
75091;DHT22;63674;48.048;8.306;2022-12-10T11:11:32;-0.60;99.90
75091;DHT22;63674;48.048;8.306;2022-12-10T11:14:15;-0.50;99.90
75091;DHT22;63674;48.048;8.306;2022-12-10T11:17:00;-0.60;99.90
75091;DHT22;63674;48.048;8.306;2022-12-10T11:19:32;-0.30;99.90
75091;DHT22;63674;48.048;8.306;2022-12-10T11:22:19;-0.50;99.90
75091;DHT22;63674;48.048;8.306;2022-12-10T11:24:49;-0.50;99.90
75091;DHT22;63674;48.048;8.306;2022-12-10T11:27:29;-0.60;99.90
75091;DHT22;63674;48.048;8.306;2022-12-10T11:30:08;-0.60;99.90
75091;DHT22;63674;48.048;8.306;2022-12-10T11:32:58;-1.40;99.90
75091;DHT22;63674;48.048;8.306;2022-12-10T11:35:43;-0.60;99.90
75091;DHT22;63674;48.048;8.306;2022-12-10T11:38:26;-0.50;99.90
75091;DHT22;63674;48.048;8.306;2022-12-10T11:41:03;-0.50;99.90
75091;DHT22;63674;48.048;8.306;2022-12-10T11:43:53;-0.40;99.90
75091;DHT22;63674;48.048;8.306;2022-12-10T11:46:51;-0.40;99.90
75091;DHT22;63674;48.048;8.306;2022-12-10T11:49:35;-0.40;99.90
75091;DHT22;63674;48.048;8.306;2022-12-10T11:52:12;-0.10;99.90
75091;DHT22;63674;48.048;8.306;2022-12-10T11:55:01;-0.40;99.90
75091;DHT22;63674;48.048;8.306;2022-12-10T11:57:45;-0.50;99.90
75091;DHT22;63674;48.048;8.306;2022-12-10T12:00:20;-0.40;99.90
75091;DHT22;63674;48.048;8.306;2022-12-10T12:03:06;0.10;99.90
75091;DHT22;63674;48.048;8.306;2022-12-10T12:05:52;-0.40;99.90
75091;DHT22;63674;48.048;8.306;2022-12-10T12:08:40;-0.30;99.90
75091;DHT22;63674;48.048;8.306;2022-12-10T12:14:16;-0.50;99.90
75091;DHT22;63674;48.048;8.306;2022-12-10T12:16:53;-0.50;99.90
75091;DHT22;63674;48.048;8.306;2022-12-10T12:19:32;-0.50;99.90
75091;DHT22;63674;48.048;8.306;2022-12-10T12:22:10;-1.70;99.90
75091;DHT22;63674;48.048;8.306;2022-12-10T12:24:44;-0.50;99.90
75091;DHT22;63674;48.048;8.306;2022-12-10T12:27:23;0.70;99.90
75091;DHT22;63674;48.048;8.306;2022-12-10T12:30:04;-0.50;99.90
75091;DHT22;63674;48.048;8.306;2022-12-10T12:32:46;-0.50;99.90
75091;DHT22;63674;48.048;8.306;2022-12-10T12:35:21;-0.50;99.90
75091;DHT22;63674;48.048;8.306;2022-12-10T12:37:56;-0.60;99.90
75091;DHT22;63674;48.048;8.306;2022-12-10T12:40:30;-0.50;99.90
75091;DHT22;63674;48.048;8.306;2022-12-10T12:43:10;-0.50;99.90
75091;DHT22;63674;48.048;8.306;2022-12-10T12:45:44;-0.50;99.90
75091;DHT22;63674;48.048;8.306;2022-12-10T12:48:22;-0.60;99.90
75091;DHT22;63674;48.048;8.306;2022-12-10T12:50:59;-0.50;99.90
75091;DHT22;63674;48.048;8.306;2022-12-10T12:53:29;-2.10;99.90
75091;DHT22;63674;48.048;8.306;2022-12-10T12:56:05;-0.50;99.90
75091;DHT22;63674;48.048;8.306;2022-12-10T12:58:41;-0.50;99.90
75091;DHT22;63674;48.048;8.306;2022-12-10T13:01:24;-0.50;99.90
75091;DHT22;63674;48.048;8.306;2022-12-10T13:03:57;-0.40;99.90
75091;DHT22;63674;48.048;8.306;2022-12-10T13:06:28;-0.50;99.90
75091;DHT22;63674;48.048;8.306;2022-12-10T13:12:16;-0.50;99.90
75091;DHT22;63674;48.048;8.306;2022-12-10T13:15:02;-0.60;99.90
75091;DHT22;63674;48.048;8.306;2022-12-10T13:18:02;-0.60;99.90
75091;DHT22;63674;48.048;8.306;2022-12-10T13:20:40;-0.60;99.90
75091;DHT22;63674;48.048;8.306;2022-12-10T13:23:28;-0.60;99.90
75091;DHT22;63674;48.048;8.306;2022-12-10T13:25:59;-0.60;99.90
75091;DHT22;63674;48.048;8.306;2022-12-10T13:28:38;-0.60;99.90
75091;DHT22;63674;48.048;8.306;2022-12-10T13:31:34;-1.00;99.90
75091;DHT22;63674;48.048;8.306;2022-12-10T13:34:19;-0.60;99.90
75091;DHT22;63674;48.048;8.306;2022-12-10T13:37:18;0.70;99.90
75091;DHT22;63674;48.048;8.306;2022-12-10T13:40:14;-0.40;99.90
75091;DHT22;63674;48.048;8.306;2022-12-10T13:42:57;-0.60;99.90
75091;DHT22;63674;48.048;8.306;2022-12-10T13:48:32;-0.40;99.90
75091;DHT22;63674;48.048;8.306;2022-12-10T13:51:16;-1.30;99.90
75091;DHT22;63674;48.048;8.306;2022-12-10T13:54:19;-0.10;99.90
75091;DHT22;63674;48.048;8.306;2022-12-10T13:57:20;-0.60;99.90
75091;DHT22;63674;48.048;8.306;2022-12-10T14:00:19;-0.80;99.90
75091;DHT22;63674;48.048;8.306;2022-12-10T14:03:04;-0.70;99.90
75091;DHT22;63674;48.048;8.306;2022-12-10T14:05:54;-0.70;99.90
75091;DHT22;63674;48.048;8.306;2022-12-10T14:08:29;-0.70;99.90
75091;DHT22;63674;48.048;8.306;2022-12-10T14:11:02;0.00;99.90
75091;DHT22;63674;48.048;8.306;2022-12-10T14:13:37;-0.70;99.90
75091;DHT22;63674;48.048;8.306;2022-12-10T14:16:11;-0.80;99.90
75091;DHT22;63674;48.048;8.306;2022-12-10T14:18:44;-0.80;99.90
75091;DHT22;63674;48.048;8.306;2022-12-10T14:21:17;-0.80;99.90
75091;DHT22;63674;48.048;8.306;2022-12-10T14:23:48;-0.90;99.90
75091;DHT22;63674;48.048;8.306;2022-12-10T14:26:26;-0.80;99.90
75091;DHT22;63674;48.048;8.306;2022-12-10T14:28:58;-2.50;99.90
75091;DHT22;63674;48.048;8.306;2022-12-10T14:31:30;-0.80;99.90
75091;DHT22;63674;48.048;8.306;2022-12-10T14:34:03;-0.50;99.90
75091;DHT22;63674;48.048;8.306;2022-12-10T14:36:38;-0.80;99.90
75091;DHT22;63674;48.048;8.306;2022-12-10T14:39:14;-0.80;99.90
75091;DHT22;63674;48.048;8.306;2022-12-10T14:41:44;-0.80;99.90
75091;DHT22;63674;48.048;8.306;2022-12-10T14:44:15;-0.80;99.90
75091;DHT22;63674;48.048;8.306;2022-12-10T14:46:47;-0.60;99.90
75091;DHT22;63674;48.048;8.306;2022-12-10T14:49:19;-0.90;99.90
75091;DHT22;63674;48.048;8.306;2022-12-10T14:51:50;-0.90;99.90
75091;DHT22;63674;48.048;8.306;2022-12-10T14:54:26;-0.40;99.90
75091;DHT22;63674;48.048;8.306;2022-12-10T14:57:01;-0.90;99.90
75091;DHT22;63674;48.048;8.306;2022-12-10T14:59:34;-1.00;99.90
75091;DHT22;63674;48.048;8.306;2022-12-10T15:02:13;-0.90;99.90
75091;DHT22;63674;48.048;8.306;2022-12-10T15:04:47;-0.90;99.90
75091;DHT22;63674;48.048;8.306;2022-12-10T15:07:21;-1.00;99.90
75091;DHT22;63674;48.048;8.306;2022-12-10T15:09:52;-1.10;99.90
75091;DHT22;63674;48.048;8.306;2022-12-10T15:12:29;-0.70;99.90
75091;DHT22;63674;48.048;8.306;2022-12-10T15:15:06;-0.40;99.90
75091;DHT22;63674;48.048;8.306;2022-12-10T15:17:41;-1.00;99.90
75091;DHT22;63674;48.048;8.306;2022-12-10T15:20:22;-1.00;99.90
75091;DHT22;63674;48.048;8.306;2022-12-10T15:22:54;-0.40;99.90
75091;DHT22;63674;48.048;8.306;2022-12-10T15:25:27;-1.20;99.90
75091;DHT22;63674;48.048;8.306;2022-12-10T15:27:58;-1.30;99.90
75091;DHT22;63674;48.048;8.306;2022-12-10T15:30:34;0.00;99.90
75091;DHT22;63674;48.048;8.306;2022-12-10T15:33:30;-2.10;99.90
75091;DHT22;63674;48.048;8.306;2022-12-10T15:36:00;-1.30;99.90
75091;DHT22;63674;48.048;8.306;2022-12-10T15:38:31;-1.40;99.90
75091;DHT22;63674;48.048;8.306;2022-12-10T15:41:21;-1.40;99.90
75091;DHT22;63674;48.048;8.306;2022-12-10T15:44:04;-0.80;99.90
75091;DHT22;63674;48.048;8.306;2022-12-10T15:46:47;-1.50;99.90
75091;DHT22;63674;48.048;8.306;2022-12-10T15:54:23;-1.60;99.90
75091;DHT22;63674;48.048;8.306;2022-12-10T16:01:54;-1.70;99.90
75091;DHT22;63674;48.048;8.306;2022-12-10T16:06:52;-1.60;99.90
75091;DHT22;63674;48.048;8.306;2022-12-10T16:09:21;-1.50;99.90
75091;DHT22;63674;48.048;8.306;2022-12-10T16:14:20;-1.70;99.90
75091;DHT22;63674;48.048;8.306;2022-12-10T16:16:48;-1.80;99.90
75091;DHT22;63674;48.048;8.306;2022-12-10T16:21:46;-0.70;99.90
75091;DHT22;63674;48.048;8.306;2022-12-10T16:26:46;-1.90;99.90
75091;DHT22;63674;48.048;8.306;2022-12-10T16:29:14;-1.30;99.90
75091;DHT22;63674;48.048;8.306;2022-12-10T16:34:13;-2.20;99.90
75091;DHT22;63674;48.048;8.306;2022-12-10T16:36:43;-1.10;99.90
75091;DHT22;63674;48.048;8.306;2022-12-10T16:39:11;-2.10;99.90
75091;DHT22;63674;48.048;8.306;2022-12-10T16:44:11;-1.90;99.90
75091;DHT22;63674;48.048;8.306;2022-12-10T16:56:40;-1.90;99.90
75091;DHT22;63674;48.048;8.306;2022-12-10T16:59:11;-1.90;99.90
75091;DHT22;63674;48.048;8.306;2022-12-10T17:11:39;-2.00;99.90
75091;DHT22;63674;48.048;8.306;2022-12-10T17:14:22;-1.80;99.90
75091;DHT22;63674;48.048;8.306;2022-12-10T17:16:53;-2.00;99.90
75091;DHT22;63674;48.048;8.306;2022-12-10T17:26:50;-1.90;99.90
75091;DHT22;63674;48.048;8.306;2022-12-10T17:29:26;-2.00;99.90
75091;DHT22;63674;48.048;8.306;2022-12-10T17:34:25;-1.90;99.90
75091;DHT22;63674;48.048;8.306;2022-12-10T17:49:21;-2.00;99.90
75091;DHT22;63674;48.048;8.306;2022-12-10T17:56:48;-2.30;99.90
75091;DHT22;63674;48.048;8.306;2022-12-10T17:59:16;-1.30;99.90
75091;DHT22;63674;48.048;8.306;2022-12-10T18:01:46;-2.40;99.90
75091;DHT22;63674;48.048;8.306;2022-12-10T18:06:44;-2.90;99.90
75091;DHT22;63674;48.048;8.306;2022-12-10T18:09:13;-2.10;99.90
75091;DHT22;63674;48.048;8.306;2022-12-10T18:11:42;-2.50;99.90
75091;DHT22;63674;48.048;8.306;2022-12-10T18:19:14;-2.20;99.90
75091;DHT22;63674;48.048;8.306;2022-12-10T18:26:50;-2.30;99.90
75091;DHT22;63674;48.048;8.306;2022-12-10T18:29:18;-2.40;99.90
75091;DHT22;63674;48.048;8.306;2022-12-10T18:31:47;-2.30;99.90
75091;DHT22;63674;48.048;8.306;2022-12-10T18:34:17;-2.40;99.90
75091;DHT22;63674;48.048;8.306;2022-12-10T18:36:47;-2.40;99.90
75091;DHT22;63674;48.048;8.306;2022-12-10T18:39:18;-2.30;99.90
75091;DHT22;63674;48.048;8.306;2022-12-10T18:41:49;-1.50;99.90
75091;DHT22;63674;48.048;8.306;2022-12-10T18:44:22;-2.30;99.90
75091;DHT22;63674;48.048;8.306;2022-12-10T18:46:53;-2.30;99.90
75091;DHT22;63674;48.048;8.306;2022-12-10T18:49:25;-2.30;99.90
75091;DHT22;63674;48.048;8.306;2022-12-10T18:54:23;-3.10;99.90
75091;DHT22;63674;48.048;8.306;2022-12-10T18:56:52;-2.10;99.90
75091;DHT22;63674;48.048;8.306;2022-12-10T18:59:41;-2.30;99.90
75091;DHT22;63674;48.048;8.306;2022-12-10T19:02:10;-2.10;99.90
75091;DHT22;63674;48.048;8.306;2022-12-10T19:04:40;-2.30;99.90
75091;DHT22;63674;48.048;8.306;2022-12-10T19:07:11;-2.40;99.90
75091;DHT22;63674;48.048;8.306;2022-12-10T19:09:41;-2.50;99.90
75091;DHT22;63674;48.048;8.306;2022-12-10T19:12:10;-2.60;99.90
75091;DHT22;63674;48.048;8.306;2022-12-10T19:14:39;-1.70;99.90
75091;DHT22;63674;48.048;8.306;2022-12-10T19:17:08;-2.50;99.90
75091;DHT22;63674;48.048;8.306;2022-12-10T19:24:37;-2.50;99.90
75091;DHT22;63674;48.048;8.306;2022-12-10T19:27:07;-2.30;99.90
75091;DHT22;63674;48.048;8.306;2022-12-10T19:34:36;-2.60;99.90
75091;DHT22;63674;48.048;8.306;2022-12-10T19:37:09;-4.20;99.90
75091;DHT22;63674;48.048;8.306;2022-12-10T19:42:06;-3.60;99.90
75091;DHT22;63674;48.048;8.306;2022-12-10T19:47:08;-2.30;99.90
75091;DHT22;63674;48.048;8.306;2022-12-10T19:52:10;-2.50;99.90
75091;DHT22;63674;48.048;8.306;2022-12-10T19:57:10;-2.70;99.90
75091;DHT22;63674;48.048;8.306;2022-12-10T20:02:08;-3.10;99.90
75091;DHT22;63674;48.048;8.306;2022-12-10T20:07:06;-3.10;99.90
75091;DHT22;63674;48.048;8.306;2022-12-10T20:14:36;-2.90;99.90
75091;DHT22;63674;48.048;8.306;2022-12-10T20:24:35;-1.90;99.90
75091;DHT22;63674;48.048;8.306;2022-12-10T20:29:34;-2.90;99.90
75091;DHT22;63674;48.048;8.306;2022-12-10T20:37:00;-2.90;99.90
75091;DHT22;63674;48.048;8.306;2022-12-10T20:39:31;-2.80;99.90
75091;DHT22;63674;48.048;8.306;2022-12-10T20:42:02;-2.80;99.90
75091;DHT22;63674;48.048;8.306;2022-12-10T20:49:33;-2.30;99.90
75091;DHT22;63674;48.048;8.306;2022-12-10T20:54:31;-2.50;99.90
75091;DHT22;63674;48.048;8.306;2022-12-10T21:11:57;-3.40;99.90
75091;DHT22;63674;48.048;8.306;2022-12-10T21:14:27;-3.60;99.90
75091;DHT22;63674;48.048;8.306;2022-12-10T21:22:13;-4.70;99.90
75091;DHT22;63674;48.048;8.306;2022-12-10T21:29:44;-4.30;99.90
75091;DHT22;63674;48.048;8.306;2022-12-10T21:37:11;-4.40;99.90
75091;DHT22;63674;48.048;8.306;2022-12-10T21:39:40;-5.20;99.90
75091;DHT22;63674;48.048;8.306;2022-12-10T21:42:11;-4.40;99.90
75091;DHT22;63674;48.048;8.306;2022-12-10T21:44:59;-4.50;99.90
75091;DHT22;63674;48.048;8.306;2022-12-10T21:47:27;-4.70;99.90
75091;DHT22;63674;48.048;8.306;2022-12-10T21:52:25;-4.60;99.90
75091;DHT22;63674;48.048;8.306;2022-12-10T21:59:52;-4.60;99.90
75091;DHT22;63674;48.048;8.306;2022-12-10T22:02:22;-4.70;99.90
75091;DHT22;63674;48.048;8.306;2022-12-10T22:07:19;-4.80;99.90
75091;DHT22;63674;48.048;8.306;2022-12-10T22:09:50;-5.50;99.90
75091;DHT22;63674;48.048;8.306;2022-12-10T22:17:16;-5.30;99.90
75091;DHT22;63674;48.048;8.306;2022-12-10T22:19:46;-5.50;99.90
75091;DHT22;63674;48.048;8.306;2022-12-10T22:27:12;-4.50;99.90
75091;DHT22;63674;48.048;8.306;2022-12-10T22:37:12;-6.10;99.90
75091;DHT22;63674;48.048;8.306;2022-12-10T22:47:08;-6.80;99.90
75091;DHT22;63674;48.048;8.306;2022-12-10T22:54:36;-6.60;99.90
75091;DHT22;63674;48.048;8.306;2022-12-10T22:57:04;-7.20;99.90
75091;DHT22;63674;48.048;8.306;2022-12-10T23:12:01;-6.40;99.90
75091;DHT22;63674;48.048;8.306;2022-12-10T23:27:13;-6.30;99.90
75091;DHT22;63674;48.048;8.306;2022-12-10T23:29:43;-6.30;99.90
75091;DHT22;63674;48.048;8.306;2022-12-10T23:32:12;-6.40;99.90
75091;DHT22;63674;48.048;8.306;2022-12-10T23:37:09;-4.90;99.90
75091;DHT22;63674;48.048;8.306;2022-12-10T23:44:38;-6.10;99.90
75091;DHT22;63674;48.048;8.306;2022-12-10T23:49:36;-6.30;99.90
